createdAt,value
2024-03-05T00:00:38.278Z,5.76
2024-03-05T00:03:06.021Z,5.75
2024-03-05T00:05:33.250Z,5.73
2024-03-05T00:08:00.465Z,5.72
2024-03-05T00:10:27.708Z,5.72
2024-03-05T00:12:54.860Z,5.72
2024-03-05T00:15:21.969Z,5.73
2024-03-05T00:17:49.121Z,5.74
2024-03-05T00:20:19.984Z,5.74
2024-03-05T00:22:48.222Z,5.75
2024-03-05T00:25:15.663Z,5.75
2024-03-05T00:27:42.865Z,5.76
2024-03-05T00:30:10.475Z,5.76
2024-03-05T00:32:40.581Z,5.75
2024-03-05T00:35:08.531Z,5.75
2024-03-05T00:37:37.069Z,5.75
2024-03-05T00:40:07.579Z,5.77
2024-03-05T00:42:38.263Z,5.77
2024-03-05T00:45:08.499Z,5.76
2024-03-05T00:47:36.472Z,5.76
2024-03-05T00:50:05.016Z,5.77
2024-03-05T00:52:32.435Z,5.78
2024-03-05T00:55:00.780Z,5.77
2024-03-05T00:57:28.167Z,5.75
2024-03-05T00:59:55.471Z,5.76
2024-03-05T01:02:23.470Z,5.74
2024-03-05T01:04:51.174Z,5.76
2024-03-05T01:07:18.824Z,5.75
2024-03-05T01:09:48.426Z,5.77
2024-03-05T01:12:15.687Z,5.76
2024-03-05T01:14:42.984Z,5.76
2024-03-05T01:17:12.614Z,5.77
2024-03-05T01:19:39.773Z,5.78
2024-03-05T01:22:07.326Z,5.78
2024-03-05T01:24:34.425Z,5.76
2024-03-05T01:27:01.456Z,5.76
2024-03-05T01:29:28.551Z,5.76
2024-03-05T01:32:02.950Z,5.75
2024-03-05T01:34:30.327Z,5.76
2024-03-05T01:37:00.636Z,5.76
2024-03-05T01:39:29.159Z,5.75
2024-03-05T01:41:56.791Z,5.76
2024-03-05T01:44:24.457Z,5.75
2024-03-05T01:46:56.282Z,5.76
2024-03-05T01:49:24.761Z,5.77
2024-03-05T01:51:54.803Z,5.78
2024-03-05T01:54:22.937Z,5.75
2024-03-05T01:56:53.573Z,5.75
2024-03-05T01:59:22.375Z,5.75
2024-03-05T02:01:49.995Z,5.76
2024-03-05T02:04:18.488Z,5.76
2024-03-05T02:06:45.913Z,5.74
2024-03-05T02:09:13.006Z,5.75
2024-03-05T02:11:52.244Z,5.77
2024-03-05T02:14:24.282Z,5.76
2024-03-05T02:16:51.998Z,5.76
2024-03-05T02:19:19.382Z,5.74
2024-03-05T02:21:47.280Z,5.75
2024-03-05T02:24:15.473Z,5.74
2024-03-05T02:26:42.789Z,5.75
2024-03-05T02:29:10.377Z,5.74
2024-03-05T02:31:37.660Z,5.75
2024-03-05T02:34:05.979Z,5.73
2024-03-05T02:36:33.221Z,5.74
2024-03-05T02:39:00.266Z,5.75
2024-03-05T02:41:27.337Z,5.74
2024-03-05T02:43:54.413Z,5.72
2024-03-05T02:46:21.574Z,5.73
2024-03-05T02:48:49.059Z,5.72
2024-03-05T02:51:16.272Z,5.71
2024-03-05T02:53:43.355Z,5.72
2024-03-05T02:58:38.340Z,5.72
2024-03-05T03:01:10.200Z,5.73
2024-03-05T03:03:37.570Z,5.71
2024-03-05T03:06:04.787Z,5.70
2024-03-05T03:08:31.917Z,5.69
2024-03-05T03:10:59.026Z,5.69
2024-03-05T03:13:26.291Z,5.69
2024-03-05T03:15:53.998Z,5.70
2024-03-05T03:18:22.043Z,5.70
2024-03-05T03:20:49.189Z,5.71
2024-03-05T03:23:16.324Z,5.68
2024-03-05T03:25:43.406Z,5.68
2024-03-05T03:28:10.519Z,5.69
2024-03-05T03:30:37.630Z,5.69
2024-03-05T03:33:05.618Z,5.68
2024-03-05T03:35:32.954Z,5.67
2024-03-05T03:38:00.132Z,5.68
2024-03-05T03:40:27.545Z,5.65
2024-03-05T03:42:55.546Z,5.63
2024-03-05T03:45:22.768Z,5.63
2024-03-05T03:47:50.378Z,5.63
2024-03-05T03:50:17.519Z,5.62
2024-03-05T03:52:44.878Z,5.61
2024-03-05T03:55:12.491Z,5.60
2024-03-05T03:57:39.774Z,5.60
2024-03-05T04:00:18.179Z,5.61
2024-03-05T04:02:46.391Z,5.61
2024-03-05T04:05:13.455Z,5.59
2024-03-05T04:07:40.566Z,5.61
2024-03-05T04:10:08.508Z,5.60
2024-03-05T04:12:35.639Z,5.62
2024-03-05T04:15:04.198Z,5.60
2024-03-05T04:17:31.289Z,5.60
2024-03-05T04:19:58.432Z,5.60
2024-03-05T04:22:25.685Z,5.58
2024-03-05T04:24:58.096Z,5.59
2024-03-05T04:27:25.682Z,5.59
2024-03-05T04:29:54.862Z,5.58
2024-03-05T04:32:22.098Z,5.57
2024-03-05T04:35:01.530Z,5.59
2024-03-05T04:37:31.196Z,5.59
2024-03-05T04:39:58.716Z,5.58
2024-03-05T04:42:26.469Z,5.57
2024-03-05T04:44:57.049Z,5.56
2024-03-05T04:47:26.596Z,5.56
2024-03-05T04:49:53.943Z,5.55
2024-03-05T04:52:21.074Z,5.55
2024-03-05T04:54:48.146Z,5.54
2024-03-05T04:57:15.226Z,5.53
2024-03-05T04:59:42.325Z,5.54
2024-03-05T05:02:10.188Z,5.55
2024-03-05T05:04:39.456Z,5.53
2024-03-05T05:07:08.525Z,5.53
2024-03-05T05:09:37.097Z,5.53
2024-03-05T05:12:04.314Z,5.53
2024-03-05T05:14:32.801Z,5.52
2024-03-05T05:17:01.132Z,5.51
2024-03-05T05:19:28.311Z,5.51
2024-03-05T05:21:55.403Z,5.51
2024-03-05T05:24:22.449Z,5.52
2024-03-05T05:26:49.483Z,5.48
2024-03-05T05:29:24.200Z,5.48
2024-03-05T05:32:00.250Z,5.50
2024-03-05T05:34:27.359Z,5.47
2024-03-05T05:36:54.664Z,5.49
2024-03-05T05:39:25.783Z,5.46
2024-03-05T05:41:53.416Z,5.45
2024-03-05T05:44:20.899Z,5.47
2024-03-05T05:46:48.138Z,5.46
2024-03-05T05:49:20.953Z,5.45
2024-03-05T05:51:48.354Z,5.44
2024-03-05T05:54:19.093Z,5.44
2024-03-05T05:56:48.978Z,5.42
2024-03-05T05:59:16.823Z,5.44
2024-03-05T06:01:45.007Z,5.42
2024-03-05T06:04:12.870Z,5.43
2024-03-05T06:06:40.258Z,5.40
2024-03-05T06:09:10.305Z,5.40
2024-03-05T06:11:37.960Z,5.41
2024-03-05T06:14:05.922Z,5.40
2024-03-05T06:16:33.606Z,5.41
2024-03-05T06:19:00.958Z,5.39
2024-03-05T06:21:28.898Z,5.41
2024-03-05T06:23:56.315Z,5.40
2024-03-05T06:26:23.593Z,5.40
2024-03-05T06:28:50.666Z,5.41
2024-03-05T06:31:17.905Z,5.40
2024-03-05T06:33:45.440Z,5.40
2024-03-05T06:36:13.591Z,5.43
2024-03-05T06:38:41.076Z,5.45
2024-03-05T06:41:10.765Z,5.45
2024-03-05T06:43:38.658Z,5.44
2024-03-05T06:46:06.253Z,5.45
2024-03-05T06:48:34.278Z,5.45
2024-03-05T06:51:04.789Z,5.46
2024-03-05T06:53:50.843Z,5.46
2024-03-05T06:56:36.693Z,5.49
2024-03-05T06:59:04.912Z,5.49
2024-03-05T07:01:33.618Z,5.52
2024-03-05T07:04:02.672Z,5.53
2024-03-05T07:06:31.584Z,5.55
2024-03-05T07:09:00.930Z,5.55
2024-03-05T07:11:28.883Z,5.55
2024-03-05T07:13:56.720Z,5.57
2024-03-05T07:16:25.315Z,5.59
2024-03-05T07:18:56.140Z,5.60
2024-03-05T07:21:24.297Z,5.61
2024-03-05T07:23:52.983Z,5.61
2024-03-05T07:26:20.885Z,5.63
2024-03-05T07:28:48.370Z,5.66
2024-03-05T07:31:16.642Z,5.66
2024-03-05T07:33:45.838Z,5.69
2024-03-05T07:36:14.058Z,5.69
2024-03-05T07:38:41.175Z,5.71
2024-03-05T07:41:14.168Z,5.72
2024-03-05T07:43:49.516Z,5.73
2024-03-05T07:46:19.471Z,5.74
2024-03-05T07:48:46.692Z,5.74
2024-03-05T07:51:17.032Z,5.74
2024-03-05T07:53:48.235Z,5.74
2024-03-05T07:56:15.615Z,5.76
2024-03-05T07:58:42.768Z,5.77
2024-03-05T08:01:10.072Z,5.78
2024-03-05T08:03:37.158Z,5.79
2024-03-05T08:06:05.509Z,5.81
2024-03-05T08:08:33.011Z,5.82
2024-03-05T08:11:00.220Z,5.84
2024-03-05T08:13:27.605Z,5.87
2024-03-05T08:15:54.913Z,5.90
2024-03-05T08:18:21.962Z,5.93
2024-03-05T08:20:49.053Z,5.95
2024-03-05T08:23:16.106Z,5.95
2024-03-05T08:25:45.419Z,5.98
2024-03-05T08:28:14.228Z,5.99
2024-03-05T08:30:43.736Z,6.02
2024-03-05T08:33:11.209Z,6.07
2024-03-05T08:35:38.484Z,6.07
2024-03-05T08:38:05.886Z,6.11
2024-03-05T08:40:34.550Z,6.15
2024-03-05T08:43:04.891Z,6.15
2024-03-05T08:45:32.756Z,6.17
2024-03-05T08:48:00.210Z,6.20
2024-03-05T08:50:30.389Z,6.21
2024-03-05T08:53:02.028Z,6.26
2024-03-05T08:55:29.553Z,6.29
2024-03-05T08:57:56.774Z,6.35
2024-03-05T09:00:33.441Z,6.40
2024-03-05T09:03:09.309Z,6.43
2024-03-05T09:05:37.108Z,6.48
2024-03-05T09:08:06.050Z,6.49
2024-03-05T09:10:33.726Z,6.58
2024-03-05T09:13:01.138Z,6.63
2024-03-05T09:15:28.289Z,6.67
2024-03-05T09:17:55.466Z,6.76
2024-03-05T09:20:22.639Z,6.83
2024-03-05T09:22:49.753Z,6.91
2024-03-05T09:25:17.337Z,6.95
2024-03-05T09:27:46.363Z,7.01
2024-03-05T09:30:16.497Z,7.07
2024-03-05T09:32:45.465Z,7.13
2024-03-05T09:35:14.312Z,7.21
2024-03-05T09:37:42.697Z,7.32
2024-03-05T09:40:18.336Z,7.40
2024-03-05T09:42:46.401Z,7.47
2024-03-05T09:45:17.963Z,7.56
2024-03-05T09:47:47.602Z,7.55
2024-03-05T09:50:17.322Z,7.58
2024-03-05T09:52:45.234Z,7.64
2024-03-05T09:55:14.025Z,7.94
2024-03-05T09:57:41.880Z,8.08
2024-03-05T10:00:16.661Z,8.22
2024-03-05T10:02:51.749Z,8.34
2024-03-05T10:05:23.642Z,8.38
2024-03-05T10:07:51.121Z,8.43
2024-03-05T10:10:19.280Z,8.35
2024-03-05T10:12:46.404Z,8.46
2024-03-05T10:15:18.933Z,8.63
2024-03-05T10:17:46.798Z,8.87
2024-03-05T10:20:27.292Z,8.70
2024-03-05T10:22:55.302Z,8.69
2024-03-05T10:25:24.985Z,8.65
2024-03-05T10:27:52.767Z,8.62
2024-03-05T10:30:21.228Z,8.71
2024-03-05T10:32:56.036Z,8.73
2024-03-05T10:35:23.381Z,8.74
2024-03-05T10:37:57.208Z,8.77
2024-03-05T10:40:26.005Z,8.89
2024-03-05T10:42:53.878Z,8.90
2024-03-05T10:45:23.406Z,8.89
2024-03-05T10:47:51.665Z,8.90
2024-03-05T10:50:19.432Z,8.94
2024-03-05T10:52:49.741Z,8.83
2024-03-05T10:55:18.491Z,8.85
2024-03-05T10:58:04.075Z,8.83
2024-03-05T11:00:36.276Z,8.80
2024-03-05T11:03:10.490Z,8.78
2024-03-05T11:05:51.129Z,8.90
2024-03-05T11:08:21.994Z,9.01
2024-03-05T11:10:54.834Z,9.06
2024-03-05T11:13:22.803Z,8.95
2024-03-05T11:15:52.654Z,8.86
2024-03-05T11:18:29.607Z,8.79
2024-03-05T11:20:57.177Z,8.70
2024-03-05T11:23:27.927Z,8.76
2024-03-05T11:25:58.402Z,8.81
2024-03-05T11:28:26.228Z,8.85
2024-03-05T11:31:19.905Z,8.81
2024-03-05T11:34:01.464Z,8.78
2024-03-05T11:36:30.605Z,8.83
2024-03-05T11:39:01.762Z,8.78
2024-03-05T11:41:31.984Z,8.81
2024-03-05T11:46:39.865Z,8.86
2024-03-05T11:49:07.652Z,8.86
2024-03-05T11:51:34.742Z,8.89
2024-03-05T11:54:01.916Z,8.76
2024-03-05T11:56:29.071Z,8.67
2024-03-05T11:58:56.671Z,8.85
2024-03-05T12:01:24.896Z,8.87
2024-03-05T12:04:04.709Z,8.80
2024-03-05T12:06:32.186Z,8.78
2024-03-05T12:09:28.407Z,8.68
2024-03-05T12:11:59.033Z,8.79
2024-03-05T12:14:26.184Z,8.87
2024-03-05T12:16:53.351Z,8.80
2024-03-05T12:19:20.526Z,8.76
2024-03-05T12:21:47.707Z,8.88
2024-03-05T12:24:15.144Z,8.88
2024-03-05T12:26:42.526Z,8.93
2024-03-05T12:29:09.795Z,8.88
2024-03-05T12:31:37.333Z,8.85
2024-03-05T12:34:04.409Z,8.88
2024-03-05T12:36:31.473Z,8.88
2024-03-05T12:38:58.898Z,8.89
2024-03-05T12:41:27.908Z,8.79
2024-03-05T12:43:55.107Z,8.71
2024-03-05T12:46:22.879Z,8.71
2024-03-05T12:48:49.995Z,8.72
2024-03-05T12:51:17.226Z,8.72
2024-03-05T12:53:45.291Z,8.76
2024-03-05T12:56:13.636Z,8.71
2024-03-05T12:58:43.941Z,8.53
2024-03-05T13:01:16.493Z,8.57
2024-03-05T13:03:44.534Z,8.60
2024-03-05T13:06:12.333Z,8.63
2024-03-05T13:08:40.290Z,8.63
2024-03-05T13:11:07.651Z,8.63
2024-03-05T13:13:35.011Z,8.70
2024-03-05T13:16:02.116Z,8.76
2024-03-05T13:18:29.999Z,8.78
2024-03-05T13:20:57.516Z,8.80
2024-03-05T13:23:25.023Z,8.85
2024-03-05T13:25:52.174Z,8.87
2024-03-05T13:28:19.321Z,8.86
2024-03-05T13:30:46.415Z,8.79
2024-03-05T13:33:14.539Z,8.72
2024-03-05T13:35:41.709Z,8.77
2024-03-05T13:38:11.258Z,8.81
2024-03-05T13:40:38.718Z,8.80
2024-03-05T13:43:11.180Z,8.78
2024-03-05T13:45:38.671Z,8.73
2024-03-05T13:48:06.121Z,8.78
2024-03-05T13:50:33.983Z,8.62
2024-03-05T13:53:01.172Z,8.61
2024-03-05T13:55:30.118Z,8.65
2024-03-05T13:57:57.430Z,8.68
2024-03-05T14:00:27.310Z,8.63
2024-03-05T14:02:54.479Z,8.69
2024-03-05T14:05:22.976Z,8.70
2024-03-05T14:07:50.259Z,8.73
2024-03-05T14:10:17.634Z,8.70
2024-03-05T14:12:50.462Z,8.61
2024-03-05T14:15:22.195Z,8.59
2024-03-05T14:17:53.119Z,8.59
2024-03-05T14:20:24.957Z,8.62
2024-03-05T14:22:52.658Z,8.71
2024-03-05T14:25:19.808Z,8.65
2024-03-05T14:27:49.157Z,8.66
2024-03-05T14:30:19.448Z,8.67
2024-03-05T14:32:47.544Z,8.61
2024-03-05T14:35:15.022Z,8.56
2024-03-05T14:37:43.554Z,8.64
2024-03-05T14:40:11.549Z,8.65
2024-03-05T14:42:38.942Z,8.65
2024-03-05T14:45:06.374Z,8.63
2024-03-05T14:47:33.457Z,8.59
2024-03-05T14:50:00.857Z,8.58
2024-03-05T14:52:28.094Z,8.56
2024-03-05T14:54:56.054Z,8.50
2024-03-05T14:57:23.098Z,8.49
2024-03-05T14:59:50.245Z,8.50
2024-03-05T15:02:17.398Z,8.50
2024-03-05T15:04:44.617Z,8.48
2024-03-05T15:07:12.139Z,8.44
2024-03-05T15:09:39.223Z,8.45
2024-03-05T15:12:08.261Z,8.48
2024-03-05T15:14:35.386Z,8.50
2024-03-05T15:17:04.092Z,8.43
2024-03-05T15:19:33.450Z,8.43
2024-03-05T15:22:00.557Z,8.40
2024-03-05T15:24:27.687Z,8.38
2024-03-05T15:27:01.701Z,8.37
2024-03-05T15:29:32.844Z,8.38
2024-03-05T15:32:02.299Z,8.32
2024-03-05T15:34:29.995Z,8.30
2024-03-05T15:36:57.325Z,8.24
2024-03-05T15:39:24.401Z,8.23
2024-03-05T15:41:51.532Z,8.18
2024-03-05T15:44:19.452Z,8.04
2024-03-05T15:46:46.649Z,7.96
2024-03-05T15:49:13.858Z,7.94
2024-03-05T15:51:41.194Z,7.79
2024-03-05T15:54:08.293Z,7.73
2024-03-05T15:56:57.987Z,7.64
2024-03-05T15:59:43.639Z,7.66
2024-03-05T16:02:10.799Z,7.69
2024-03-05T16:04:57.440Z,7.72
2024-03-05T16:07:25.205Z,7.69
2024-03-05T16:09:52.319Z,7.56
2024-03-05T16:12:19.472Z,7.45
2024-03-05T16:14:47.377Z,7.38
2024-03-05T16:17:14.597Z,7.38
2024-03-05T16:19:42.477Z,7.35
2024-03-05T16:22:10.065Z,7.23
2024-03-05T16:24:37.196Z,7.25
2024-03-05T16:27:04.314Z,7.16
2024-03-05T16:29:31.427Z,7.13
2024-03-05T16:31:59.681Z,7.04
2024-03-05T16:34:27.092Z,7.08
2024-03-05T16:36:54.969Z,7.02
2024-03-05T16:39:22.065Z,6.88
2024-03-05T16:41:49.197Z,6.95
2024-03-05T16:44:16.879Z,6.87
2024-03-05T16:46:46.483Z,6.86
2024-03-05T16:49:13.950Z,6.80
2024-03-05T16:51:43.035Z,6.79
2024-03-05T16:54:11.500Z,6.80
2024-03-05T16:56:38.572Z,6.81
2024-03-05T16:59:08.670Z,6.73
2024-03-05T17:01:35.987Z,6.70
2024-03-05T17:04:06.853Z,6.64
2024-03-05T17:06:34.611Z,6.62
2024-03-05T17:09:02.581Z,6.61
2024-03-05T17:11:30.328Z,6.60
2024-03-05T17:13:57.563Z,6.56
2024-03-05T17:16:26.588Z,6.60
2024-03-05T17:18:53.901Z,6.61
2024-03-05T17:21:20.994Z,6.60
2024-03-05T17:23:48.235Z,6.57
2024-03-05T17:26:17.173Z,6.58
2024-03-05T17:28:44.768Z,6.58
2024-03-05T17:31:12.814Z,6.59
2024-03-05T17:33:40.425Z,6.57
2024-03-05T17:36:07.789Z,6.57
2024-03-05T17:38:34.964Z,6.54
2024-03-05T17:41:04.420Z,6.55
2024-03-05T17:43:31.853Z,6.55
2024-03-05T17:45:59.612Z,6.54
2024-03-05T17:48:28.284Z,6.48
2024-03-05T17:50:55.582Z,6.43
2024-03-05T17:53:22.719Z,6.42
2024-03-05T17:55:49.866Z,6.40
2024-03-05T17:58:19.621Z,6.36
2024-03-05T18:00:47.273Z,6.38
2024-03-05T18:03:22.412Z,6.34
2024-03-05T18:05:49.795Z,6.36
2024-03-05T18:08:16.927Z,6.37
2024-03-05T18:10:44.278Z,6.34
2024-03-05T18:13:11.673Z,6.31
2024-03-05T18:15:38.844Z,6.27
2024-03-05T18:18:07.101Z,6.28
2024-03-05T18:20:36.260Z,6.32
2024-03-05T18:23:05.570Z,6.32
2024-03-05T18:25:36.896Z,6.30
2024-03-05T18:28:05.105Z,6.30
2024-03-05T18:30:35.765Z,6.28
2024-03-05T18:33:07.116Z,6.28
2024-03-05T18:35:34.766Z,6.22
2024-03-05T18:38:04.747Z,6.22
2024-03-05T18:40:34.469Z,6.22
2024-03-05T18:43:01.610Z,6.22
2024-03-05T18:45:31.153Z,6.21
2024-03-05T18:48:06.438Z,6.19
2024-03-05T18:50:37.218Z,6.19
2024-03-05T18:53:07.283Z,6.15
2024-03-05T18:55:37.339Z,6.15
2024-03-05T18:58:09.337Z,6.13
2024-03-05T19:00:41.071Z,6.13
2024-03-05T19:03:08.463Z,6.12
2024-03-05T19:05:36.200Z,6.13
2024-03-05T19:08:06.171Z,6.13
2024-03-05T19:10:33.381Z,6.10
2024-03-05T19:13:00.935Z,6.12
2024-03-05T19:15:29.410Z,6.13
2024-03-05T19:17:57.930Z,6.14
2024-03-05T19:20:25.174Z,6.14
2024-03-05T19:22:52.372Z,6.11
2024-03-05T19:25:21.652Z,6.05
2024-03-05T19:27:49.112Z,6.03
2024-03-05T19:30:19.553Z,6.03
2024-03-05T19:32:47.596Z,6.04
2024-03-05T19:35:17.226Z,6.03
2024-03-05T19:37:45.937Z,6.05
2024-03-05T19:40:17.498Z,5.99
2024-03-05T19:42:45.899Z,5.94
2024-03-05T19:45:13.558Z,5.94
2024-03-05T19:47:40.924Z,5.92
2024-03-05T19:50:08.566Z,5.83
2024-03-05T19:52:36.843Z,5.85
2024-03-05T19:55:04.159Z,5.83
2024-03-05T19:57:31.295Z,5.86
2024-03-05T20:00:00.471Z,5.85
2024-03-05T20:02:39.989Z,5.83
2024-03-05T20:05:07.345Z,5.83
2024-03-05T20:07:34.557Z,5.81
2024-03-05T20:10:02.286Z,5.81
2024-03-05T20:12:29.817Z,5.77
2024-03-05T20:14:56.902Z,5.79
2024-03-05T20:17:25.546Z,5.72
2024-03-05T20:19:54.537Z,5.74
2024-03-05T20:22:25.450Z,5.73
2024-03-05T20:24:59.308Z,5.72
2024-03-05T20:27:31.443Z,5.64
2024-03-05T20:29:58.571Z,5.66
2024-03-05T20:32:26.078Z,5.69
2024-03-05T20:34:53.423Z,5.70
2024-03-05T20:37:21.670Z,5.69
2024-03-05T20:39:50.822Z,5.70
2024-03-05T20:42:17.931Z,5.70
2024-03-05T20:44:44.982Z,5.63
2024-03-05T20:47:12.683Z,5.61
2024-03-05T20:49:40.060Z,5.60
2024-03-05T20:52:07.148Z,5.56
2024-03-05T20:54:34.264Z,5.55
2024-03-05T20:57:01.335Z,5.55
2024-03-05T20:59:33.249Z,5.49
2024-03-05T21:02:09.935Z,5.46
2024-03-05T21:04:37.725Z,5.42
2024-03-05T21:07:05.983Z,5.43
2024-03-05T21:09:33.507Z,5.41
2024-03-05T21:12:01.458Z,5.40
2024-03-05T21:14:28.677Z,5.42
2024-03-05T21:16:55.917Z,5.41
2024-03-05T21:19:27.180Z,5.38
2024-03-05T21:21:54.612Z,5.32
2024-03-05T21:24:24.116Z,5.29
2024-03-05T21:29:21.381Z,5.28
2024-03-05T21:31:48.674Z,5.25
2024-03-05T21:34:15.828Z,5.24
2024-03-05T21:36:42.887Z,5.23
2024-03-05T21:39:10.046Z,5.24
2024-03-05T21:41:37.222Z,5.23
2024-03-05T21:44:04.574Z,5.24
2024-03-05T21:46:31.824Z,5.22
2024-03-05T21:48:59.023Z,5.21
2024-03-05T21:51:26.096Z,5.17
2024-03-05T21:53:53.168Z,5.15
2024-03-05T21:56:20.384Z,5.14
2024-03-05T21:58:47.576Z,5.09
2024-03-05T22:01:14.673Z,5.08
2024-03-05T22:03:41.760Z,5.07
2024-03-05T22:06:15.462Z,5.07
2024-03-05T22:08:47.170Z,5.03
2024-03-05T22:11:15.426Z,4.97
2024-03-05T22:13:42.772Z,4.93
2024-03-05T22:16:09.922Z,4.91
2024-03-05T22:18:37.625Z,4.88
2024-03-05T22:21:05.102Z,4.89
2024-03-05T22:23:32.982Z,4.90
2024-03-05T22:26:00.200Z,4.88
2024-03-05T22:28:27.354Z,4.86
2024-03-05T22:30:55.491Z,4.85
2024-03-05T22:33:23.540Z,4.84
2024-03-05T22:35:51.230Z,4.85
2024-03-05T22:38:18.778Z,4.82
2024-03-05T22:40:45.985Z,4.81
2024-03-05T22:43:14.346Z,4.79
2024-03-05T22:45:41.438Z,4.77
2024-03-05T22:48:08.608Z,4.78
2024-03-05T22:50:35.726Z,4.77
2024-03-05T22:53:03.097Z,4.78
2024-03-05T22:55:30.232Z,4.78
2024-03-05T22:57:57.342Z,4.79
2024-03-05T23:00:24.838Z,4.77
2024-03-05T23:02:52.718Z,4.77
2024-03-05T23:05:20.616Z,4.77
2024-03-05T23:07:48.176Z,4.76
2024-03-05T23:10:16.199Z,4.77
2024-03-05T23:12:46.296Z,4.78
2024-03-05T23:15:16.350Z,4.79
2024-03-05T23:17:44.516Z,4.78
2024-03-05T23:20:12.566Z,4.77
2024-03-05T23:22:40.329Z,4.78
2024-03-05T23:25:08.172Z,4.78
2024-03-05T23:27:35.907Z,4.78
2024-03-05T23:30:07.353Z,4.78
2024-03-05T23:32:34.631Z,4.78
2024-03-05T23:35:01.847Z,4.78
2024-03-05T23:37:29.004Z,4.77
2024-03-05T23:39:56.166Z,4.72
2024-03-05T23:42:23.332Z,4.81
2024-03-05T23:44:50.453Z,4.82
2024-03-05T23:47:17.585Z,4.82
2024-03-05T23:49:45.047Z,4.79
2024-03-05T23:52:12.242Z,4.81
2024-03-05T23:54:39.341Z,4.82
2024-03-05T23:57:06.471Z,4.82
2024-03-05T23:59:33.580Z,4.81
